Time;durP1;ratioP1;P1;durP2;ratioP2;P2;SDS_P1;SDS_P2;PMS_P1;PMS_P2;Temp;Humidity;BMP_temperature;BMP_pressure;BME280_temperature;BME280_humidity;BME280_pressure;Samples;Min_cycle;Max_cycle;Signal;HPM_P1;HPM_P2
2022/05/20 00:01:29;;;;;;;;;;;14.30;99.90;;;;;;5055059;28;19931;-80
2022/05/20 00:03:54;;;;;;;;;;;14.20;99.90;;;;;;5072771;28;19929;-80
2022/05/20 00:06:20;;;;;;;;;;;14.10;99.90;;;;;;5054728;28;20424;-80
2022/05/20 00:08:46;;;;;;;;;;;14.10;99.90;;;;;;5072968;28;19924;-80
2022/05/20 00:11:11;;;;;;;;;;;14.10;99.90;;;;;;5055126;28;19924;-80
2022/05/20 00:13:37;;;;;;;;;;;14.10;99.90;;;;;;5054786;28;19924;-80
2022/05/20 00:16:02;;;;;;;;;;;14.10;99.90;;;;;;5054749;28;19925;-80
2022/05/20 00:18:28;;;;;;;;;;;14.10;99.90;;;;;;5072558;28;19924;-80
2022/05/20 00:20:54;;;;;;;;;;;14.00;99.90;;;;;;5054637;28;20019;-81
2022/05/20 00:23:19;;;;;;;;;;;14.00;99.90;;;;;;5072469;28;19928;-80
2022/05/20 00:25:48;;;;;;;;;;;14.00;99.90;;;;;;5071119;28;19932;-80
2022/05/20 00:28:13;;;;;;;;;;;14.00;99.90;;;;;;5055081;28;19931;-80
2022/05/20 00:30:39;;;;;;;;;;;13.90;99.90;;;;;;5072385;28;19928;-80
2022/05/20 00:33:05;;;;;;;;;;;14.00;99.90;;;;;;5072451;28;19925;-80
2022/05/20 00:35:31;;;;;;;;;;;14.00;99.90;;;;;;5072115;28;20294;-80
2022/05/20 00:37:56;;;;;;;;;;;14.00;99.90;;;;;;5072409;28;19943;-80
2022/05/20 00:40:23;;;;;;;;;;;13.90;99.90;;;;;;5053939;28;19924;-80
2022/05/20 00:42:49;;;;;;;;;;;13.90;99.90;;;;;;5072195;28;19924;-80
2022/05/20 00:45:15;;;;;;;;;;;13.90;99.90;;;;;;5072367;28;19924;-80
2022/05/20 00:47:42;;;;;;;;;;;13.80;99.90;;;;;;5072464;28;19925;-81
2022/05/20 00:50:15;;;;;;;;;;;13.80;99.90;;;;;;5071922;28;20015;-80
2022/05/20 00:52:42;;;;;;;;;;;13.80;99.90;;;;;;5072263;28;19925;-80
2022/05/20 00:55:10;;;;;;;;;;;13.80;99.90;;;;;;5054166;28;19968;-80
2022/05/20 00:57:39;;;;;;;;;;;13.70;99.90;;;;;;5054157;28;19999;-81
2022/05/20 01:00:08;;;;;;;;;;;13.70;99.90;;;;;;5071866;28;20062;-81
2022/05/20 01:02:34;;;;;;;;;;;13.70;99.90;;;;;;5072280;28;20294;-80
2022/05/20 01:05:00;;;;;;;;;;;13.60;99.90;;;;;;5070847;28;19924;-80
2022/05/20 01:07:27;;;;;;;;;;;13.60;99.90;;;;;;5070978;28;19928;-80
2022/05/20 01:09:53;;;;;;;;;;;13.60;99.90;;;;;;5053710;28;20007;-80
2022/05/20 01:12:19;;;;;;;;;;;13.50;99.90;;;;;;5071539;28;20027;-80
2022/05/20 01:14:44;;;;;;;;;;;13.50;99.90;;;;;;5053784;28;19924;-80
2022/05/20 01:17:10;;;;;;;;;;;13.50;99.90;;;;;;5053666;28;19931;-80
2022/05/20 01:19:38;;;;;;;;;;;13.50;99.90;;;;;;5071393;28;19947;-81
2022/05/20 01:22:04;;;;;;;;;;;13.50;99.90;;;;;;5053574;28;20429;-80
2022/05/20 01:24:30;;;;;;;;;;;13.40;99.90;;;;;;5071450;28;19935;-80
2022/05/20 01:26:55;;;;;;;;;;;13.40;99.90;;;;;;5071508;28;19924;-80
2022/05/20 01:29:21;;;;;;;;;;;13.40;99.90;;;;;;5071252;28;20008;-80
2022/05/20 01:31:46;;;;;;;;;;;13.40;99.90;;;;;;5053016;28;20155;-80
2022/05/20 01:34:12;;;;;;;;;;;13.30;99.90;;;;;;5053230;28;19951;-81
2022/05/20 01:36:37;;;;;;;;;;;13.30;99.90;;;;;;5036472;28;19977;-80
2022/05/20 01:39:03;;;;;;;;;;;13.30;99.90;;;;;;5070912;28;19925;-81
2022/05/20 01:41:36;;;;;;;;;;;13.20;99.90;;;;;;5052484;28;20007;-80
2022/05/20 01:44:04;;;;;;;;;;;13.20;99.90;;;;;;5053025;28;19968;-80
2022/05/20 01:46:35;;;;;;;;;;;13.20;99.90;;;;;;5070900;28;19925;-80
2022/05/20 01:49:11;;;;;;;;;;;13.20;99.90;;;;;;5071228;28;20298;-80
2022/05/20 01:51:46;;;;;;;;;;;13.20;99.90;;;;;;5069967;28;19924;-80
2022/05/20 01:54:17;;;;;;;;;;;13.20;99.90;;;;;;5070612;28;19924;-80
2022/05/20 01:56:53;;;;;;;;;;;13.10;99.90;;;;;;5070416;28;19978;-80
2022/05/20 01:59:27;;;;;;;;;;;13.10;99.90;;;;;;5070847;28;20386;-80
2022/05/20 02:01:55;;;;;;;;;;;13.20;99.90;;;;;;5070731;28;19951;-80
2022/05/20 02:04:24;;;;;;;;;;;13.10;99.90;;;;;;5035937;28;19953;-80
2022/05/20 02:06:51;;;;;;;;;;;13.10;99.90;;;;;;5052715;28;19924;-80
2022/05/20 02:09:20;;;;;;;;;;;13.10;99.90;;;;;;5070471;28;20007;-80
2022/05/20 02:11:47;;;;;;;;;;;13.10;99.90;;;;;;5062927;28;19925;-80
2022/05/20 02:14:17;;;;;;;;;;;13.10;99.90;;;;;;5070342;28;20299;-80
2022/05/20 02:16:46;;;;;;;;;;;13.10;99.90;;;;;;5070386;28;19924;-80
2022/05/20 02:19:17;;;;;;;;;;;13.10;99.90;;;;;;5052479;28;20017;-80
2022/05/20 02:21:44;;;;;;;;;;;13.00;99.90;;;;;;5070291;28;20019;-80
2022/05/20 02:24:11;;;;;;;;;;;13.00;99.90;;;;;;5052337;28;20043;-81
2022/05/20 02:26:40;;;;;;;;;;;13.00;99.90;;;;;;5069846;28;20369;-81
2022/05/20 02:29:16;;;;;;;;;;;13.00;99.90;;;;;;5052302;28;19967;-80
2022/05/20 02:31:55;;;;;;;;;;;12.90;99.90;;;;;;5069909;28;19928;-80
2022/05/20 02:34:21;;;;;;;;;;;12.90;99.90;;;;;;5051513;28;19932;-80
2022/05/20 02:36:46;;;;;;;;;;;12.80;99.90;;;;;;5069795;28;19929;-80
2022/05/20 02:39:15;;;;;;;;;;;12.80;99.90;;;;;;5069606;28;19928;-80
2022/05/20 02:41:44;;;;;;;;;;;12.70;99.90;;;;;;5052214;28;20443;-80
2022/05/20 02:44:10;;;;;;;;;;;12.70;99.90;;;;;;5070216;28;19928;-80
2022/05/20 02:46:36;;;;;;;;;;;12.60;99.90;;;;;;5070110;28;19931;-80
2022/05/20 02:49:02;;;;;;;;;;;12.60;99.90;;;;;;5070111;28;20565;-80
2022/05/20 02:51:28;;;;;;;;;;;12.60;99.90;;;;;;5069500;28;19925;-80
2022/05/20 02:53:53;;;;;;;;;;;12.60;99.90;;;;;;5085127;28;19924;-80
2022/05/20 02:56:19;;;;;;;;;;;12.50;99.90;;;;;;5070436;28;20321;-80
2022/05/20 03:04:13;;;;;;;;;;;12.60;99.90;;;;;;5051818;28;19957;-80
2022/05/20 03:06:49;;;;;;;;;;;12.50;99.90;;;;;;5085241;28;19924;-80
2022/05/20 03:09:15;;;;;;;;;;;12.50;99.90;;;;;;5069782;28;19982;-80
2022/05/20 03:11:41;;;;;;;;;;;12.60;99.90;;;;;;5069670;28;19924;-80
2022/05/20 03:14:10;;;;;;;;;;;12.60;99.90;;;;;;5069721;28;20394;-80
2022/05/20 03:16:37;;;;;;;;;;;12.60;99.90;;;;;;5069267;28;19930;-80
2022/05/20 03:19:04;;;;;;;;;;;12.50;99.90;;;;;;5051810;28;19925;-80
2022/05/20 03:21:30;;;;;;;;;;;12.50;99.90;;;;;;5050861;28;20416;-80
2022/05/20 03:23:56;;;;;;;;;;;12.50;99.90;;;;;;5069439;28;19991;-80
2022/05/20 03:26:21;;;;;;;;;;;12.40;99.90;;;;;;5069188;28;19967;-80
2022/05/20 03:28:47;;;;;;;;;;;12.40;99.90;;;;;;5051274;28;19932;-80
2022/05/20 03:31:13;;;;;;;;;;;12.40;99.90;;;;;;5069209;28;19936;-79
2022/05/20 03:33:40;;;;;;;;;;;12.40;99.90;;;;;;5069402;28;19978;-80
2022/05/20 03:36:06;;;;;;;;;;;12.40;99.90;;;;;;5069622;28;20007;-80
2022/05/20 03:38:32;;;;;;;;;;;12.30;99.90;;;;;;5069391;28;19925;-80
2022/05/20 03:40:58;;;;;;;;;;;12.30;99.90;;;;;;5069592;28;19947;-80
2022/05/20 03:43:24;;;;;;;;;;;12.30;99.90;;;;;;5069488;28;19974;-80
2022/05/20 03:45:51;;;;;;;;;;;12.30;99.90;;;;;;5069048;28;20484;-79
2022/05/20 03:48:16;;;;;;;;;;;12.30;99.90;;;;;;5051769;28;19928;-80
2022/05/20 03:50:42;;;;;;;;;;;12.30;99.90;;;;;;5069268;28;19935;-80
2022/05/20 03:53:07;;;;;;;;;;;12.20;99.90;;;;;;5050962;28;19924;-80
2022/05/20 03:55:33;;;;;;;;;;;12.30;99.90;;;;;;5051443;28;19931;-79
2022/05/20 03:57:59;;;;;;;;;;;12.20;99.90;;;;;;5068992;28;19931;-80
2022/05/20 04:00:24;;;;;;;;;;;12.20;99.90;;;;;;5051654;28;20011;-80
2022/05/20 04:02:50;;;;;;;;;;;12.20;99.90;;;;;;5069137;28;19935;-76
2022/05/20 04:05:15;;;;;;;;;;;12.30;99.90;;;;;;5069348;28;20019;-79
2022/05/20 04:07:41;;;;;;;;;;;12.20;99.90;;;;;;5069497;28;20304;-80
2022/05/20 04:10:07;;;;;;;;;;;12.30;99.90;;;;;;5034819;28;19935;-80
2022/05/20 04:12:34;;;;;;;;;;;12.30;99.90;;;;;;5068630;28;20374;-80
2022/05/20 04:15:00;;;;;;;;;;;12.30;99.90;;;;;;5069524;28;19924;-80
2022/05/20 04:17:25;;;;;;;;;;;12.30;99.90;;;;;;5071228;28;20464;-80
2022/05/20 04:19:51;;;;;;;;;;;12.30;99.90;;;;;;5072538;28;19938;-80
2022/05/20 04:22:19;;;;;;;;;;;12.30;99.90;;;;;;5071832;28;20282;-80
2022/05/20 04:24:45;;;;;;;;;;;12.30;99.90;;;;;;5072680;28;20377;-80
2022/05/20 04:27:11;;;;;;;;;;;12.40;99.90;;;;;;5072425;28;19928;-80
2022/05/20 04:29:36;;;;;;;;;;;12.50;99.90;;;;;;5088236;28;19958;-80
2022/05/20 04:32:02;;;;;;;;;;;12.60;99.90;;;;;;5054520;28;19971;-80
2022/05/20 04:34:28;;;;;;;;;;;12.60;99.90;;;;;;5072031;28;20373;-80
2022/05/20 04:36:53;;;;;;;;;;;12.70;99.90;;;;;;5054260;28;20266;-80
2022/05/20 04:39:19;;;;;;;;;;;12.80;99.90;;;;;;5072310;28;19928;-80
2022/05/20 04:47:17;;;;;;;;;;;12.80;99.90;;;;;;5072292;28;20297;-80
2022/05/20 04:49:42;;;;;;;;;;;12.80;99.90;;;;;;5054139;28;20691;-79
2022/05/20 04:52:08;;;;;;;;;;;12.80;99.90;;;;;;5071701;28;19925;-80
2022/05/20 04:57:20;;;;;;;;;;;12.80;99.90;;;;;;5071787;28;20421;-80
2022/05/20 04:59:46;;;;;;;;;;;12.80;99.90;;;;;;5053854;28;19932;-80
2022/05/20 05:02:12;;;;;;;;;;;12.80;99.90;;;;;;5072152;28;19925;-80
2022/05/20 05:04:37;;;;;;;;;;;12.80;99.90;;;;;;5070829;28;19932;-80
2022/05/20 05:07:03;;;;;;;;;;;12.90;99.90;;;;;;5071462;28;19924;-80
2022/05/20 05:09:29;;;;;;;;;;;12.90;99.90;;;;;;5071385;28;19928;-79
2022/05/20 05:11:54;;;;;;;;;;;12.90;99.90;;;;;;5071373;28;19931;-80
2022/05/20 05:14:20;;;;;;;;;;;13.00;99.90;;;;;;5071764;28;20301;-80
2022/05/20 05:16:45;;;;;;;;;;;13.00;99.90;;;;;;5071636;28;19970;-80
2022/05/20 05:19:11;;;;;;;;;;;13.00;99.90;;;;;;5071873;28;20340;-80
2022/05/20 05:21:37;;;;;;;;;;;13.00;99.90;;;;;;5053185;28;19966;-80
2022/05/20 05:24:03;;;;;;;;;;;13.00;99.90;;;;;;5071658;28;19924;-80
2022/05/20 05:26:29;;;;;;;;;;;13.10;99.90;;;;;;5071337;28;19924;-80
2022/05/20 05:28:55;;;;;;;;;;;13.10;99.90;;;;;;5053211;28;19925;-80
2022/05/20 05:31:21;;;;;;;;;;;13.20;99.90;;;;;;5053568;28;19931;-80
2022/05/20 05:33:47;;;;;;;;;;;13.30;99.90;;;;;;5071305;28;19924;-80
2022/05/20 05:36:12;;;;;;;;;;;13.30;99.90;;;;;;5053579;28;19928;-80
2022/05/20 05:38:38;;;;;;;;;;;13.50;99.90;;;;;;5071008;28;19924;-80
2022/05/20 05:41:04;;;;;;;;;;;13.60;99.90;;;;;;5052965;28;20380;-80
2022/05/20 05:43:29;;;;;;;;;;;13.70;99.90;;;;;;5071037;28;19926;-77
2022/05/20 05:45:55;;;;;;;;;;;13.70;99.90;;;;;;5070806;28;20007;-77
2022/05/20 05:48:20;;;;;;;;;;;13.70;99.90;;;;;;5080896;28;19986;-78
2022/05/20 05:50:46;;;;;;;;;;;13.80;99.90;;;;;;5079241;28;19970;-79
2022/05/20 05:53:18;;;;;;;;;;;13.80;99.90;;;;;;5090050;28;19928;-79
2022/05/20 05:55:45;;;;;;;;;;;13.80;99.90;;;;;;5061675;28;20313;-79
2022/05/20 05:58:11;;;;;;;;;;;13.80;99.90;;;;;;5090881;28;20549;-79
2022/05/20 06:00:37;;;;;;;;;;;13.80;99.90;;;;;;5072749;28;19971;-79
2022/05/20 06:03:04;;;;;;;;;;;13.80;99.90;;;;;;5091050;28;20018;-79
2022/05/20 06:05:30;;;;;;;;;;;13.80;99.90;;;;;;5090605;28;19976;-79
2022/05/20 06:07:56;;;;;;;;;;;13.80;99.90;;;;;;5090773;28;19932;-79
2022/05/20 06:10:22;;;;;;;;;;;13.90;99.90;;;;;;5090300;28;19924;-79
2022/05/20 06:12:48;;;;;;;;;;;14.00;99.90;;;;;;5090764;28;20400;-79
2022/05/20 06:15:17;;;;;;;19.35;13.05;;;14.10;99.90;;;;;;5069968;28;19978;-79
2022/05/20 06:17:43;;;;;;;24.87;14.73;;;14.10;99.90;;;;;;5068450;28;20407;-79
2022/05/20 06:20:10;;;;;;;19.20;15.02;;;14.30;99.90;;;;;;5068892;28;20475;-79
2022/05/20 06:22:35;;;;;;;20.85;15.68;;;14.30;99.90;;;;;;5068121;28;20416;-79
2022/05/20 06:25:01;;;;;;;17.40;15.02;;;14.30;99.90;;;;;;5067095;28;20412;-79
2022/05/20 06:27:27;;;;;;;17.97;14.47;;;14.30;99.90;;;;;;5068286;28;20404;-79
2022/05/20 06:29:53;;;;;;;19.83;13.98;;;14.30;99.90;;;;;;5083774;28;20519;-79
2022/05/20 06:32:18;;;;;;;16.73;13.20;;;14.30;99.90;;;;;;5068430;28;20427;-79
2022/05/20 06:40:17;;;;;;;16.63;11.40;;;14.60;99.90;;;;;;5068265;28;20924;-79
2022/05/20 06:42:43;;;;;;;17.60;10.93;;;14.70;99.90;;;;;;5068476;28;20403;-80
2022/05/20 06:45:10;;;;;;;16.30;9.73;;;14.80;99.90;;;;;;5068383;28;21005;-79
2022/05/20 06:47:36;;;;;;;14.48;9.70;;;14.80;99.90;;;;;;5068066;28;20458;-79
2022/05/20 06:50:03;;;;;;;15.60;10.07;;;14.90;99.90;;;;;;5068035;28;20391;-80
2022/05/20 06:52:29;;;;;;;11.45;7.95;;;15.10;99.90;;;;;;5068253;28;20511;-80
2022/05/20 06:54:54;;;;;;;13.77;7.20;;;15.30;99.90;;;;;;5068221;28;20486;-79
2022/05/20 06:57:21;;;;;;;13.03;7.63;;;15.40;99.90;;;;;;5068064;28;20399;-79
2022/05/20 06:59:47;;;;;;;12.57;9.00;;;15.70;99.90;;;;;;5050092;28;20440;-79
2022/05/20 07:02:13;;;;;;;13.48;8.90;;;15.80;99.90;;;;;;5068399;28;20447;-79
2022/05/20 07:04:38;;;;;;;11.23;7.77;;;15.90;99.90;;;;;;5068061;28;20391;-79
2022/05/20 07:07:05;;;;;;;8.63;6.05;;;15.90;99.90;;;;;;5050304;28;20464;-79
2022/05/20 07:09:32;;;;;;;10.90;6.03;;;15.80;99.90;;;;;;5068052;28;20473;-80
2022/05/20 07:11:58;;;;;;;9.55;5.63;;;15.70;99.90;;;;;;5067733;28;20451;-79
2022/05/20 07:14:24;;;;;;;11.55;6.10;;;15.70;99.90;;;;;;5050289;28;20419;-79
2022/05/20 07:16:50;;;;;;;10.88;7.47;;;15.70;99.90;;;;;;5067644;28;20403;-79
2022/05/20 07:19:17;;;;;;;10.93;7.80;;;15.60;99.90;;;;;;5068003;28;20465;-79
2022/05/20 07:21:43;;;;;;;11.05;5.78;;;15.60;99.90;;;;;;5067954;28;20427;-79
2022/05/20 07:24:09;;;;;;;12.45;5.75;;;15.60;99.90;;;;;;5067787;28;20968;-79
2022/05/20 07:26:35;;;;;;;11.02;6.30;;;15.50;99.90;;;;;;5067578;28;20449;-79
2022/05/20 07:29:02;;;;;;;12.23;6.28;;;15.50;99.90;;;;;;5067390;28;20483;-80
2022/05/20 07:31:28;;;;;;;10.93;7.70;;;15.50;99.90;;;;;;5050163;28;20461;-79
2022/05/20 07:33:54;;;;;;;13.57;8.90;;;15.60;99.90;;;;;;5049545;28;20399;-79
2022/05/20 07:36:20;;;;;;;12.27;8.20;;;15.70;99.90;;;;;;5049565;28;20396;-79
2022/05/20 07:38:46;;;;;;;11.85;8.18;;;15.70;99.90;;;;;;5082860;28;20399;-79
2022/05/20 07:41:12;;;;;;;10.98;8.93;;;15.80;99.90;;;;;;5067639;28;20446;-80
2022/05/20 07:43:38;;;;;;;12.38;9.02;;;16.10;99.90;;;;;;5067160;28;20392;-79
2022/05/20 07:46:05;;;;;;;13.32;9.07;;;16.20;99.90;;;;;;5067484;28;20431;-80
2022/05/20 07:48:32;;;;;;;11.32;8.10;;;16.30;99.90;;;;;;5067677;28;20419;-79
2022/05/20 07:51:05;;;;;;;10.38;6.57;;;16.30;99.90;;;;;;5068237;28;20542;-79
2022/05/20 07:53:37;;;;;;;10.95;6.68;;;16.40;99.90;;;;;;5070922;28;20935;-79
2022/05/20 07:56:11;;;;;;;11.70;6.57;;;16.40;99.90;;;;;;5070952;28;20406;-80
2022/05/20 07:58:51;;;;;;;10.05;7.07;;;16.40;99.90;;;;;;5053105;28;20437;-80
2022/05/20 08:01:19;;;;;;;8.57;5.45;;;16.50;99.90;;;;;;5070956;28;20407;-79
2022/05/20 08:06:31;;;;;;;8.77;6.85;;;16.80;99.90;;;;;;5071080;28;20396;-79
2022/05/20 08:08:56;;;;;;;9.20;5.82;;;16.90;99.90;;;;;;5071040;28;20505;-79
2022/05/20 08:11:22;;;;;;;8.03;4.80;;;16.90;99.90;;;;;;5036494;28;20443;-79
2022/05/20 08:13:50;;;;;;;10.37;6.13;;;17.10;99.90;;;;;;5071078;28;20431;-79
2022/05/20 08:16:16;;;;;;;11.02;6.35;;;17.10;99.90;;;;;;5053606;28;20415;-80
2022/05/20 08:18:42;;;;;;;10.23;6.65;;;17.10;99.90;;;;;;5070453;28;20400;-79
2022/05/20 08:21:07;;;;;;;8.68;5.70;;;17.10;99.90;;;;;;5070673;28;20407;-80
2022/05/20 08:23:33;;;;;;;10.23;5.00;;;17.10;99.90;;;;;;5070872;28;20457;-79
2022/05/20 08:25:59;;;;;;;9.07;5.80;;;17.30;99.90;;;;;;5070653;28;20407;-79
2022/05/20 08:28:24;;;;;;;9.57;5.43;;;17.40;99.90;;;;;;5070743;28;20400;-79
2022/05/20 08:30:50;;;;;;;9.57;6.23;;;17.30;99.90;;;;;;5052897;28;20961;-80
2022/05/20 08:33:16;;;;;;;9.52;5.97;;;17.40;99.90;;;;;;5070455;28;21007;-80
2022/05/20 08:35:41;;;;;;;10.40;6.40;;;17.40;99.90;;;;;;5069719;28;20395;-80
2022/05/20 08:38:07;;;;;;;9.88;5.38;;;17.40;99.90;;;;;;5070191;28;20452;-79
2022/05/20 08:40:40;;;;;;;9.67;5.93;;;17.40;99.90;;;;;;5070326;28;20848;-80
2022/05/20 08:43:06;;;;;;;10.63;6.50;;;17.50;99.90;;;;;;5050265;28;20405;-80
2022/05/20 08:45:32;;;;;;;11.68;6.38;;;17.50;99.90;;;;;;5055539;28;20407;-80
2022/05/20 08:47:58;;;;;;;9.80;5.90;;;17.40;99.90;;;;;;5070350;28;20855;-80
2022/05/20 08:50:36;;;;;;;8.20;5.73;;;17.40;99.90;;;;;;5070041;28;20422;-80
2022/05/20 08:53:06;;;;;;;8.23;5.60;;;17.50;99.90;;;;;;5069916;28;20446;-80
2022/05/20 08:55:31;;;;;;;9.40;5.75;;;17.60;99.90;;;;;;5052963;28;20407;-80
2022/05/20 08:58:00;;;;;;;8.77;5.37;;;17.70;99.90;;;;;;5050068;28;20409;-80
2022/05/20 09:00:28;;;;;;;7.30;4.80;;;17.70;99.90;;;;;;5050086;28;20543;-80
2022/05/20 09:02:54;;;;;;;8.82;4.78;;;17.80;99.90;;;;;;5031688;28;20421;-80
2022/05/20 09:05:29;;;;;;;8.82;5.03;;;17.90;99.90;;;;;;5049831;28;20406;-80
2022/05/20 09:08:09;;;;;;;8.10;4.38;;;18.10;99.90;;;;;;5032373;28;20489;-80
2022/05/20 09:10:59;;;;;;;6.20;3.88;;;18.30;99.90;;;;;;5049609;28;20501;-80
2022/05/20 09:16:18;;;;;;;7.20;3.65;;;18.60;99.90;;;;;;5085418;28;20416;-80
2022/05/20 09:18:46;;;;;;;6.30;3.33;;;18.70;99.90;;;;;;5051746;28;20506;-80
2022/05/20 09:21:23;;;;;;;6.82;3.70;;;18.70;99.90;;;;;;5069849;28;20402;-80
2022/05/20 09:23:52;;;;;;;7.50;3.60;;;18.90;99.90;;;;;;5068060;28;20407;-80
2022/05/20 09:26:22;;;;;;;;;;;19.00;99.90;;;;;;5036851;28;20533;-80
2022/05/20 09:28:50;;;;;;;;;;;19.20;99.90;;;;;;5071306;28;20306;-80
2022/05/20 09:31:21;;;;;;;;;;;19.30;99.90;;;;;;5071094;28;19924;-80
2022/05/20 09:33:49;;;;;;;;;;;19.40;99.90;;;;;;5071306;28;19971;-80
2022/05/20 09:36:29;;;;;;;;;;;19.40;99.90;;;;;;5071456;28;19924;-80
2022/05/20 09:39:05;;;;;;;;;;;19.60;99.90;;;;;;5070818;28;19928;-80
2022/05/20 09:41:33;;;;;;;;;;;19.90;99.90;;;;;;5071098;28;19973;-80
2022/05/20 09:43:59;;;;;;;;;;;20.00;99.90;;;;;;5071140;28;19920;-80
2022/05/20 09:46:44;;;;;;;;;;;20.20;99.90;;;;;;5071054;28;19920;-80
2022/05/20 09:49:15;;;;;;;;;;;20.40;99.90;;;;;;5070807;28;19971;-80
2022/05/20 09:51:45;;;;;;;;;;;20.40;99.90;;;;;;5070600;28;19971;-81
2022/05/20 09:54:20;;;;;;;;;;;20.40;99.90;;;;;;5070899;28;20023;-80
2022/05/20 09:56:55;;;;;;;;;;;20.40;99.90;;;;;;5053095;28;20003;-80
2022/05/20 09:59:26;;;;;;;;;;;20.50;99.90;;;;;;5070770;28;19986;-80
2022/05/20 10:01:58;;;;;;;;;;;20.60;99.90;;;;;;5070757;28;19924;-81
2022/05/20 10:04:27;;;;;;;;;;;20.70;99.90;;;;;;5070839;28;19921;-80
2022/05/20 10:06:55;;;;;;;;;;;20.80;99.90;;;;;;5070625;28;19920;-80
2022/05/20 10:09:39;;;;;;;;;;;20.90;99.30;;;;;;5069951;28;19921;-80
2022/05/20 10:12:07;;;;;;;;;;;20.80;99.90;;;;;;5070307;28;19924;-80
2022/05/20 10:14:57;;;;;;;;;;;20.70;99.50;;;;;;5069845;28;19924;-80
2022/05/20 10:17:43;;;;;;;;;;;20.60;99.00;;;;;;5064642;28;20421;-80
2022/05/20 10:20:24;;;;;;;;;;;20.70;99.90;;;;;;5052030;28;20007;-81
2022/05/20 10:22:59;;;;;;;;;;;20.80;99.90;;;;;;5052187;28;19920;-81
2022/05/20 10:25:29;;;;;;;;;;;20.80;99.30;;;;;;5052191;28;20378;-81
2022/05/20 10:28:01;;;;;;;;;;;20.80;98.60;;;;;;5070410;28;20294;-80
2022/05/20 10:33:22;;;;;;;;;;;20.70;99.30;;;;;;5070350;28;19920;-80
2022/05/20 10:36:06;;;;;;;;;;;20.50;98.80;;;;;;5069524;28;20001;-81
2022/05/20 10:38:44;;;;;;;;;;;20.40;97.90;;;;;;5070077;28;19974;-80
2022/05/20 10:41:21;;;;;;;;;;;20.30;97.90;;;;;;5069883;28;19927;-81
2022/05/20 10:49:31;;;;;;;;;;;20.50;99.40;;;;;;5049705;28;19921;-80
2022/05/20 10:52:05;;;;;;;;;;;20.60;99.30;;;;;;5049533;28;19920;-80
2022/05/20 10:54:49;;;;;;;;;;;20.80;99.50;;;;;;5049771;28;19967;-80
2022/05/20 10:57:23;;;;;;;6.80;3.55;;;20.90;97.80;;;;;;5049557;28;19920;-80
2022/05/20 11:00:19;;;;;;;7.20;3.47;;;20.90;97.30;;;;;;5049364;28;20585;-80
2022/05/20 11:03:04;;;;;;;8.00;3.42;;;20.90;98.20;;;;;;5009493;28;20100;-80
2022/05/20 11:06:00;;;;;;;9.15;3.42;;;20.90;98.40;;;;;;5014942;28;20072;-80
2022/05/20 11:08:43;;;;;;;6.03;3.30;;;20.90;98.70;;;;;;5031755;28;20123;-80
2022/05/20 11:11:28;;;;;;;7.15;3.08;;;21.00;97.80;;;;;;5031406;28;20056;-80
2022/05/20 11:14:08;;;;;;;4.35;2.42;;;21.00;97.40;;;;;;5014594;28;20084;-80
2022/05/20 11:17:05;;;;;;;5.20;2.40;;;21.10;96.10;;;;;;5047815;28;20588;-80
2022/05/20 11:19:33;;;;;;;7.13;3.10;;;21.20;96.60;;;;;;5064514;28;20590;-80
2022/05/20 11:22:10;;;;;;;;;;;21.30;97.30;;;;;;5031588;28;20049;-80
2022/05/20 11:24:44;;;;;;;;;;;21.50;97.20;;;;;;5066414;28;19931;-80
2022/05/20 11:27:15;;;;;;;;;;;21.80;97.30;;;;;;5035960;28;20383;-81
2022/05/20 11:29:56;;;;;;;;;;;21.80;96.70;;;;;;5036000;28;20341;-80
2022/05/20 11:32:34;;;;;;;;;;;21.80;96.00;;;;;;5035776;28;19966;-80
2022/05/20 11:35:19;;;;;;;;;;;21.80;96.30;;;;;;5035649;28;20390;-81
2022/05/20 11:37:53;;;;;;;;;;;21.90;96.00;;;;;;5053176;28;19947;-81
2022/05/20 11:40:18;;;;;;;;;;;22.00;94.90;;;;;;5053450;28;20431;-81
2022/05/20 11:43:31;;;;;;;5.72;3.80;;;22.10;95.70;;;;;;5053036;28;19925;-80
2022/05/20 11:46:15;;;;;;;;;;;22.30;94.80;;;;;;5063723;28;20075;-81
2022/05/20 11:48:59;;;;;;;;;;;22.50;93.50;;;;;;5055582;28;20355;-81
2022/05/20 11:51:43;;;;;;;;;;;22.60;94.40;;;;;;5073020;28;19927;-81
2022/05/20 11:54:20;;;;;;;5.28;3.80;;;22.90;94.00;;;;;;5072287;28;19920;-81
2022/05/20 11:56:47;;;;;;;;;;;23.00;93.60;;;;;;5055070;28;20049;-81
2022/05/20 11:59:18;;;;;;;;;;;23.20;93.90;;;;;;5073069;28;19943;-81
2022/05/20 12:01:45;;;;;;;;;;;23.20;91.80;;;;;;5073011;28;19931;-81
2022/05/20 12:04:11;;;;;;;;;;;23.30;90.50;;;;;;5073149;28;19927;-81
2022/05/20 12:06:46;;;;;;;;;;;23.30;89.80;;;;;;5072364;28;19920;-81
2022/05/20 12:09:34;;;;;;;;;;;23.40;86.70;;;;;;5072922;28;19924;-82
2022/05/20 12:12:09;;;;;;;;;;;23.60;91.50;;;;;;5049386;28;19920;-81
2022/05/20 12:14:53;;;;;;;;;;;23.70;90.90;;;;;;5072662;28;19956;-82
2022/05/20 12:17:34;;;;;;;;;;;23.60;90.10;;;;;;5053886;28;19920;-81
2022/05/20 12:25:42;;;;;;;;;;;23.90;87.00;;;;;;5072595;28;20256;-81
2022/05/20 12:28:08;;;;;;;;;;;23.80;89.60;;;;;;5072115;28;19973;-81
2022/05/20 12:30:44;;;;;;;;;;;23.90;88.30;;;;;;5071815;28;20059;-81
2022/05/20 12:33:20;;;;;;;;;;;24.00;88.00;;;;;;5072048;28;19920;-81
2022/05/20 12:36:05;;;;;;;;;;;23.90;86.80;;;;;;5054028;28;19921;-81
2022/05/20 12:38:31;;;;;;;;;;;23.80;88.40;;;;;;5071923;28;19966;-81
2022/05/20 12:40:57;;;;;;;;;;;23.70;90.10;;;;;;5088160;28;19920;-81
2022/05/20 12:43:41;;;;;;;;;;;23.70;89.70;;;;;;5054498;28;19960;-81
2022/05/20 12:46:09;;;;;;;;;;;23.50;90.30;;;;;;5071525;28;19979;-81
2022/05/20 12:48:35;;;;;;;;;;;23.40;90.50;;;;;;5052835;28;19920;-81
2022/05/20 12:51:02;;;;;;;;;;;23.30;90.40;;;;;;5053901;28;19920;-80
2022/05/20 12:53:29;;;;;;;;;;;23.30;90.90;;;;;;5053575;28;19924;-81
2022/05/20 12:55:55;;;;;;;;;;;23.20;90.30;;;;;;5037315;28;19920;-81
2022/05/20 12:58:29;;;;;;;;;;;23.20;90.00;;;;;;5071817;28;19920;-81
2022/05/20 13:00:55;;;;;;;;;;;23.20;91.20;;;;;;5053960;28;19927;-81
2022/05/20 13:03:34;;;;;;;;;;;23.40;90.60;;;;;;5053902;28;19999;-81
2022/05/20 13:06:00;;;;;;;;;;;23.40;90.50;;;;;;5072008;28;19927;-81
2022/05/20 13:08:29;;;;;;;;;;;23.30;90.30;;;;;;5071978;28;19927;-81
2022/05/20 13:10:54;;;;;;;;;;;23.10;90.00;;;;;;5087281;28;19921;-80
2022/05/20 13:13:23;;;;;;;;;;;23.00;89.30;;;;;;5071823;28;19921;-81
2022/05/20 13:15:59;;;;;;;;;;;22.90;90.10;;;;;;5071696;28;19920;-81
2022/05/20 13:18:26;;;;;;;;;;;22.80;88.30;;;;;;5053948;28;19927;-81
2022/05/20 13:20:56;;;;;;;;;;;22.70;88.10;;;;;;5071646;28;19920;-81
2022/05/20 13:23:26;;;;;;;;;;;22.50;89.50;;;;;;5071483;28;20271;-81
2022/05/20 13:25:52;;;;;;;;;;;22.30;89.90;;;;;;5071475;28;20062;-82
2022/05/20 13:28:36;;;;;;;;;;;22.20;90.60;;;;;;5071513;28;20035;-81
2022/05/20 13:31:06;;;;;;;;;;;22.20;89.90;;;;;;5052876;28;19924;-81
2022/05/20 13:33:32;;;;;;;;;;;22.10;90.30;;;;;;5071304;28;19927;-81
2022/05/20 13:36:00;;;;;;;;;;;22.10;90.40;;;;;;5071224;28;20061;-81
2022/05/20 13:38:27;;;;;;;;;;;21.90;90.30;;;;;;5071381;28;19990;-81
2022/05/20 13:40:53;;;;;;;;;;;21.80;90.60;;;;;;5052938;28;19927;-81
2022/05/20 13:43:21;;;;;;;;;;;21.70;90.50;;;;;;5071250;28;19927;-81
2022/05/20 13:51:26;;;;;;;;;;;21.40;90.80;;;;;;5070805;28;19920;-80
2022/05/20 13:53:53;;;;;;;;;;;21.20;90.70;;;;;;5070386;28;19943;-80
2022/05/20 13:56:24;;;;;;;;;;;21.10;91.50;;;;;;5070978;28;20439;-80
2022/05/20 13:58:49;;;;;;;;;;;21.00;91.90;;;;;;5070681;28;19928;-81
2022/05/20 14:01:15;;;;;;;;;;;21.00;92.30;;;;;;5070719;28;19920;-81
2022/05/20 14:03:46;;;;;;;;;;;21.00;91.80;;;;;;5070417;28;19924;-80
2022/05/20 14:06:14;;;;;;;;;;;21.00;91.90;;;;;;5070449;28;20332;-81
2022/05/20 14:08:45;;;;;;;;;;;20.90;91.90;;;;;;5052675;28;20401;-80
2022/05/20 14:11:13;;;;;;;;;;;20.80;91.50;;;;;;5070004;28;19924;-80
2022/05/20 14:13:40;;;;;;;;;;;20.70;91.00;;;;;;5070567;28;20007;-81
2022/05/20 14:16:14;;;;;;;;;;;20.70;91.20;;;;;;5035845;28;19921;-80
2022/05/20 14:18:42;;;;;;;;;;;20.70;90.90;;;;;;5070462;28;19974;-80
2022/05/20 14:21:12;;;;;;;;;;;20.60;90.50;;;;;;5052637;28;19931;-80
2022/05/20 14:23:39;;;;;;;;;;;20.50;92.70;;;;;;5070419;28;19927;-80
2022/05/20 14:26:10;;;;;;;;;;;20.30;93.90;;;;;;5070153;28;19920;-80
2022/05/20 14:28:39;;;;;;;;;;;20.30;93.40;;;;;;5070383;28;20351;-81
2022/05/20 14:31:05;;;;;;;;;;;20.20;94.30;;;;;;5070432;28;19920;-80
2022/05/20 14:33:31;;;;;;;;;;;20.10;94.20;;;;;;5070322;28;20294;-80
2022/05/20 14:35:58;;;;;;;;;;;20.00;94.80;;;;;;5069727;28;20373;-80
2022/05/20 14:38:31;;;;;;;;;;;20.00;96.20;;;;;;5069920;28;19920;-80
2022/05/20 14:41:01;;;;;;;;;;;19.90;96.00;;;;;;5070014;28;19925;-81
2022/05/20 14:43:31;;;;;;;;;;;19.80;97.10;;;;;;5070098;28;20018;-81
2022/05/20 14:45:58;;;;;;;;;;;19.60;98.00;;;;;;5052247;28;19924;-81
2022/05/20 14:48:27;;;;;;;;;;;19.50;98.90;;;;;;5070129;28;19996;-81